createdAt,value
2019-03-23T00:00:43.662Z,102755.42
2019-03-23T00:01:43.670Z,102755.44
2019-03-23T00:02:43.866Z,102754.75
2019-03-23T00:03:44.208Z,102754.56
2019-03-23T00:04:45.180Z,102753.83
2019-03-23T00:05:45.196Z,102753.66
2019-03-23T00:05:53.749Z,102749.08
2019-03-23T00:06:55.208Z,102745.71
2019-03-23T00:07:56.088Z,102745.48
2019-03-23T00:08:57.079Z,102745.54
2019-03-23T00:09:58.814Z,102745.37
2019-03-23T00:10:57.593Z,102745.37
2019-03-23T00:11:58.868Z,102745.73
2019-03-23T00:12:58.919Z,102746.33
2019-03-23T00:13:59.085Z,102746.89
2019-03-23T00:14:59.963Z,102747.66
2019-03-23T00:16:00.904Z,102747.99
2019-03-23T00:17:01.268Z,102747.89
2019-03-23T00:18:02.194Z,102748.06
2019-03-23T00:19:03.011Z,102749.16
2019-03-23T00:20:03.853Z,102748.83
2019-03-23T00:21:04.330Z,102749.34
2019-03-23T00:22:05.314Z,102749.58
2019-03-23T00:23:05.576Z,102749.52
2019-03-23T00:24:06.309Z,102749.42
2019-03-23T00:25:07.207Z,102749.66
2019-03-23T00:26:07.987Z,102749.34
2019-03-23T00:27:08.062Z,102749.17
2019-03-23T00:28:08.746Z,102748.66
2019-03-23T00:29:09.599Z,102748.42
2019-03-23T00:30:09.982Z,102748.07
2019-03-23T00:31:10.972Z,102748.14
2019-03-23T00:32:11.046Z,102748.65
2019-03-23T00:33:11.181Z,102748.49
2019-03-23T00:34:11.984Z,102748.66
2019-03-23T00:35:12.120Z,102748.48
2019-03-23T00:36:12.230Z,102748.81
2019-03-23T00:37:12.344Z,102749.31
2019-03-23T00:38:13.805Z,102748.99
2019-03-23T00:39:13.919Z,102749.16
2019-03-23T00:40:14.501Z,102749.41
2019-03-23T00:41:15.333Z,102749.66
2019-03-23T00:42:16.200Z,102750.00
2019-03-23T00:43:16.657Z,102750.57
2019-03-23T00:44:17.527Z,102750.75
2019-03-23T00:45:16.737Z,102750.73
2019-03-23T00:46:17.801Z,102751.23
2019-03-23T00:47:18.634Z,102751.40
2019-03-23T00:48:18.469Z,102752.05
2019-03-23T00:49:20.238Z,102752.66
2019-03-23T00:50:21.057Z,102752.81
2019-03-23T00:50:29.668Z,102750.20
2019-03-23T00:51:30.463Z,102750.38
2019-03-23T00:52:32.387Z,102750.38
2019-03-23T00:53:33.204Z,102750.78
2019-03-23T00:54:33.238Z,102751.04
2019-03-23T00:55:34.035Z,102751.05
2019-03-23T00:56:34.788Z,102751.54
2019-03-23T00:57:35.550Z,102751.45
2019-03-23T00:58:36.415Z,102751.80
2019-03-23T00:59:36.442Z,102752.39
2019-03-23T01:00:37.208Z,102753.20
2019-03-23T01:01:38.022Z,102753.81
2019-03-23T01:02:37.749Z,102754.39
2019-03-23T01:03:39.586Z,102754.88
2019-03-23T01:04:40.500Z,102755.14
2019-03-23T01:05:40.644Z,102756.06
2019-03-23T01:06:51.598Z,102755.72
2019-03-23T01:07:41.397Z,102755.95
2019-03-23T01:08:43.283Z,102757.56
2019-03-23T01:09:44.235Z,102757.97
2019-03-23T01:10:44.896Z,102758.47
2019-03-23T01:11:45.687Z,102758.64
2019-03-23T01:12:46.578Z,102759.56
2019-03-23T01:13:47.359Z,102760.20
2019-03-23T01:14:48.223Z,102760.38
2019-03-23T01:15:49.042Z,102760.97
2019-03-23T01:16:49.199Z,102761.89
2019-03-23T01:17:49.200Z,102762.05
2019-03-23T01:18:49.313Z,102762.45
2019-03-23T01:19:49.438Z,102763.11
2019-03-23T01:20:50.117Z,102763.27
2019-03-23T01:21:49.440Z,102763.27
2019-03-23T01:22:50.860Z,102763.40
2019-03-23T01:23:51.787Z,102763.23
2019-03-23T01:24:52.081Z,102763.23
2019-03-23T01:25:52.304Z,102763.05
2019-03-23T01:26:53.253Z,102763.20
2019-03-23T01:27:53.390Z,102763.78
2019-03-23T01:28:54.278Z,102763.27
2019-03-23T01:29:55.132Z,102762.77
2019-03-23T01:30:56.105Z,102762.65
2019-03-23T01:31:56.967Z,102762.41
2019-03-23T01:32:56.983Z,102761.91
2019-03-23T01:33:57.942Z,102761.73
2019-03-23T01:34:58.317Z,102761.16
2019-03-23T01:35:06.886Z,102756.50
2019-03-23T01:36:08.095Z,102763.86
2019-03-23T01:37:08.431Z,102763.61
2019-03-23T01:38:09.376Z,102763.17
2019-03-23T01:39:10.306Z,102762.95
2019-03-23T01:40:11.217Z,102763.36
2019-03-23T01:41:11.365Z,102763.26
2019-03-23T01:42:12.073Z,102763.61
2019-03-23T01:43:12.990Z,102764.02
2019-03-23T01:44:13.927Z,102764.09
2019-03-23T01:45:15.062Z,102764.20
2019-03-23T01:46:14.048Z,102765.45
2019-03-23T01:47:14.064Z,102765.42
2019-03-23T01:48:14.970Z,102765.61
2019-03-23T01:49:15.486Z,102765.52
2019-03-23T01:50:16.144Z,102765.74
2019-03-23T01:51:16.217Z,102765.83
2019-03-23T01:52:16.315Z,102766.42
2019-03-23T01:53:16.029Z,102766.64
2019-03-23T01:54:17.875Z,102767.24
2019-03-23T01:55:18.822Z,102767.56
2019-03-23T01:56:19.774Z,102768.23
2019-03-23T01:57:20.526Z,102768.30
2019-03-23T01:58:21.414Z,102768.63
2019-03-23T01:59:22.270Z,102768.95
2019-03-23T02:00:23.201Z,102769.22
2019-03-23T02:01:24.155Z,102769.97
2019-03-23T02:02:25.020Z,102770.03
2019-03-23T02:03:25.793Z,102770.43
2019-03-23T02:04:26.781Z,102771.03
2019-03-23T02:05:26.757Z,102771.69
2019-03-23T02:06:27.079Z,102772.25
2019-03-23T02:07:27.127Z,102773.28
2019-03-23T02:08:27.221Z,102773.77
2019-03-23T02:09:28.016Z,102774.77
2019-03-23T02:10:28.995Z,102775.77
2019-03-23T02:11:28.985Z,102777.26
2019-03-23T02:12:29.943Z,102777.52
2019-03-23T02:13:30.888Z,102777.58
2019-03-23T02:14:31.795Z,102777.64
2019-03-23T02:15:31.970Z,102778.13
2019-03-23T02:16:33.246Z,102778.22
2019-03-23T02:17:32.459Z,102778.30
2019-03-23T02:18:33.394Z,102778.72
2019-03-23T02:19:33.431Z,102778.72
2019-03-23T02:19:41.959Z,102779.56
2019-03-23T02:20:43.013Z,102775.19
2019-03-23T02:21:43.036Z,102775.29
2019-03-23T02:22:44.004Z,102774.53
2019-03-23T02:23:44.085Z,102774.02
2019-03-23T02:24:45.066Z,102773.38
2019-03-23T02:25:45.291Z,102773.36
2019-03-23T02:26:46.166Z,102773.11
2019-03-23T02:27:47.012Z,102773.22
2019-03-23T02:28:47.031Z,102773.05
2019-03-23T02:29:48.063Z,102773.38
2019-03-23T02:30:47.152Z,102773.88
2019-03-23T02:31:47.236Z,102773.62
2019-03-23T02:32:48.109Z,102773.28
2019-03-23T02:33:49.000Z,102773.73
2019-03-23T02:34:49.414Z,102773.95
2019-03-23T02:35:50.212Z,102773.94
2019-03-23T02:36:50.347Z,102773.95
2019-03-23T02:37:51.193Z,102774.35
2019-03-23T02:38:51.333Z,102773.98
2019-03-23T02:39:51.477Z,102773.91
2019-03-23T02:40:52.318Z,102774.48
2019-03-23T02:41:52.653Z,102774.89
2019-03-23T02:42:53.621Z,102775.11
2019-03-23T02:43:54.517Z,102775.78
2019-03-23T02:44:54.690Z,102775.36
2019-03-23T02:45:55.613Z,102775.44
2019-03-23T02:46:56.035Z,102775.79
2019-03-23T02:47:56.200Z,102775.50
2019-03-23T02:48:57.067Z,102775.68
2019-03-23T02:49:57.444Z,102775.75
2019-03-23T02:50:57.736Z,102776.09
2019-03-23T02:51:57.835Z,102776.01
2019-03-23T02:52:58.297Z,102776.27
2019-03-23T02:53:58.484Z,102776.44
2019-03-23T02:54:58.507Z,102777.50
2019-03-23T02:55:59.036Z,102777.94
2019-03-23T02:56:59.154Z,102778.52
2019-03-23T02:58:00.080Z,102779.09
2019-03-23T02:59:00.998Z,102779.27
2019-03-23T03:00:01.019Z,102779.84
2019-03-23T03:01:01.870Z,102780.36
2019-03-23T03:02:02.850Z,102781.34
2019-03-23T03:02:11.378Z,102784.94
2019-03-23T03:03:12.625Z,102784.25
2019-03-23T03:04:12.773Z,102783.98
2019-03-23T03:05:12.792Z,102783.82
2019-03-23T03:06:13.732Z,102784.25
2019-03-23T03:07:13.773Z,102784.32
2019-03-23T03:08:13.869Z,102784.73
2019-03-23T03:09:14.013Z,102784.97
2019-03-23T03:10:14.110Z,102785.24
2019-03-23T03:11:14.273Z,102784.98
2019-03-23T03:12:14.544Z,102785.39
2019-03-23T03:13:15.385Z,102785.87
2019-03-23T03:14:15.823Z,102786.31
2019-03-23T03:15:15.973Z,102786.89
2019-03-23T03:16:16.956Z,102786.80
2019-03-23T03:17:17.231Z,102787.22
2019-03-23T03:18:17.325Z,102787.36
2019-03-23T03:19:17.450Z,102788.55
2019-03-23T03:20:17.751Z,102788.63
2019-03-23T03:21:17.918Z,102788.70
2019-03-23T03:22:18.007Z,102788.69
2019-03-23T03:23:18.187Z,102789.53
2019-03-23T03:24:18.313Z,102790.02
2019-03-23T03:25:18.670Z,102790.70
2019-03-23T03:26:18.726Z,102791.44
2019-03-23T03:27:19.007Z,102792.02
2019-03-23T03:28:19.014Z,102792.28
2019-03-23T03:29:19.960Z,102792.43
2019-03-23T03:30:20.127Z,102792.94
2019-03-23T03:31:20.954Z,102792.58
2019-03-23T03:32:21.005Z,102793.09
2019-03-23T03:33:21.304Z,102793.15
2019-03-23T03:34:20.674Z,102793.33
2019-03-23T03:35:22.576Z,102793.83
2019-03-23T03:36:23.503Z,102793.67
2019-03-23T03:37:24.410Z,102793.39
2019-03-23T03:38:25.169Z,102793.39
2019-03-23T03:39:26.023Z,102793.47
2019-03-23T03:40:26.866Z,102793.20
2019-03-23T03:41:27.826Z,102792.47
2019-03-23T03:42:28.720Z,102792.30
2019-03-23T03:43:29.622Z,102792.03
2019-03-23T03:44:30.687Z,102791.87
2019-03-23T03:45:30.454Z,102791.80
2019-03-23T03:45:39.013Z,102794.94
2019-03-23T03:46:40.028Z,102793.25
2019-03-23T03:47:41.435Z,102793.25
2019-03-23T03:48:39.439Z,102793.25
2019-03-23T03:49:41.237Z,102793.59
2019-03-23T03:50:42.129Z,102793.59
2019-03-23T03:51:42.995Z,102794.02
2019-03-23T03:52:43.818Z,102794.11
2019-03-23T03:53:44.633Z,102793.78
2019-03-23T03:54:45.466Z,102794.19
2019-03-23T03:55:45.165Z,102794.52
2019-03-23T03:56:47.099Z,102794.59
2019-03-23T03:57:46.999Z,102794.84
2019-03-23T03:58:48.961Z,102794.84
2019-03-23T03:59:49.839Z,102794.66
2019-03-23T04:00:50.090Z,102794.84
2019-03-23T04:01:50.140Z,102795.24
2019-03-23T04:02:50.120Z,102794.98
2019-03-23T04:03:50.949Z,102795.16
2019-03-23T04:04:51.811Z,102795.75
2019-03-23T04:05:52.757Z,102795.59
2019-03-23T04:06:52.690Z,102795.09
2019-03-23T04:07:54.597Z,102795.25
2019-03-23T04:08:55.399Z,102795.49
2019-03-23T04:09:56.172Z,102796.16
2019-03-23T04:10:56.970Z,102797.17
2019-03-23T04:11:57.920Z,102797.31
2019-03-23T04:12:58.654Z,102797.66
2019-03-23T04:13:59.400Z,102798.34
2019-03-23T04:15:00.373Z,102798.81
2019-03-23T04:16:00.200Z,102799.16
2019-03-23T04:17:02.189Z,102799.72
2019-03-23T04:18:02.928Z,102800.13
2019-03-23T04:19:03.648Z,102800.38
2019-03-23T04:20:04.021Z,102800.88
2019-03-23T04:21:04.936Z,102801.79
2019-03-23T04:22:05.757Z,102802.11
2019-03-23T04:23:06.175Z,102803.27
2019-03-23T04:24:06.245Z,102804.33
2019-03-23T04:25:07.043Z,102805.67
2019-03-23T04:26:07.097Z,102806.67
2019-03-23T04:27:07.908Z,102807.64
2019-03-23T04:28:08.831Z,102809.03
2019-03-23T04:29:09.670Z,102810.34
2019-03-23T04:30:10.601Z,102811.84
2019-03-23T04:31:10.481Z,102813.14
2019-03-23T04:32:11.423Z,102813.71
2019-03-23T04:33:12.552Z,102814.69
2019-03-23T04:34:13.390Z,102815.59
2019-03-23T04:35:13.229Z,102816.56
2019-03-23T04:36:15.090Z,102817.97
2019-03-23T04:36:24.115Z,102838.41
2019-03-23T04:37:25.855Z,102835.03
2019-03-23T04:38:26.679Z,102834.59
2019-03-23T04:39:27.615Z,102834.70
2019-03-23T04:40:28.466Z,102835.09
2019-03-23T04:41:28.483Z,102835.26
2019-03-23T04:42:28.632Z,102835.42
2019-03-23T04:43:28.669Z,102835.76
2019-03-23T04:44:28.713Z,102835.77
2019-03-23T04:45:28.983Z,102836.34
2019-03-23T04:46:29.943Z,102836.19
2019-03-23T04:47:29.980Z,102836.59
2019-03-23T04:48:29.998Z,102836.77
2019-03-23T04:49:29.841Z,102836.81
2019-03-23T04:50:31.631Z,102836.73
2019-03-23T04:51:32.537Z,102836.97
2019-03-23T04:52:33.432Z,102837.22
2019-03-23T04:53:34.407Z,102837.70
2019-03-23T04:54:35.379Z,102837.70
2019-03-23T04:55:36.349Z,102837.69
2019-03-23T04:56:37.210Z,102838.09
2019-03-23T04:57:38.186Z,102837.75
2019-03-23T04:58:39.181Z,102837.92
2019-03-23T04:59:39.020Z,102837.66
2019-03-23T05:00:40.768Z,102837.81
2019-03-23T05:01:40.766Z,102838.22
2019-03-23T05:02:41.582Z,102838.48
2019-03-23T05:03:41.631Z,102839.16
2019-03-23T05:04:41.607Z,102839.99
2019-03-23T05:05:42.457Z,102840.06
2019-03-23T05:06:42.743Z,102840.73
2019-03-23T05:07:41.816Z,102841.48
2019-03-23T05:08:41.844Z,102841.95
2019-03-23T05:09:42.920Z,102842.63
2019-03-23T05:10:43.814Z,102843.23
2019-03-23T05:11:44.701Z,102843.91
2019-03-23T05:12:45.654Z,102844.91
2019-03-23T05:13:46.143Z,102845.57
2019-03-23T05:14:47.075Z,102846.65
2019-03-23T05:15:47.117Z,102847.30
2019-03-23T05:16:48.042Z,102848.23
2019-03-23T05:17:48.940Z,102849.30
2019-03-23T05:18:49.782Z,102850.55
2019-03-23T05:19:49.876Z,102851.62
2019-03-23T05:19:58.436Z,102877.16
2019-03-23T05:20:59.464Z,102871.11
2019-03-23T05:22:00.333Z,102870.69
2019-03-23T05:23:01.176Z,102870.78
2019-03-23T05:24:02.017Z,102870.87
2019-03-23T05:25:02.265Z,102870.70
2019-03-23T05:26:02.256Z,102870.89
2019-03-23T05:27:03.199Z,102871.56
2019-03-23T05:28:03.914Z,102872.23
2019-03-23T05:29:04.799Z,102872.73
2019-03-23T05:30:05.691Z,102872.97
2019-03-23T05:31:07.167Z,102873.64
2019-03-23T05:32:06.563Z,102874.48
2019-03-23T05:33:08.423Z,102874.98
2019-03-23T05:34:09.419Z,102875.41
2019-03-23T05:35:10.432Z,102876.73
2019-03-23T05:36:09.594Z,102878.00
2019-03-23T05:37:10.855Z,102878.67
2019-03-23T05:38:11.020Z,102879.34
2019-03-23T05:39:11.321Z,102880.58
2019-03-23T05:40:11.401Z,102881.59
2019-03-23T05:41:11.553Z,102882.50
2019-03-23T05:42:11.895Z,102883.34
2019-03-23T05:43:11.897Z,102884.27
2019-03-23T05:44:12.106Z,102884.70
2019-03-23T05:45:12.177Z,102885.09
2019-03-23T05:46:12.258Z,102885.70
2019-03-23T05:47:13.138Z,102886.12
2019-03-23T05:48:13.955Z,102886.62
2019-03-23T05:49:14.733Z,102887.48
2019-03-23T05:50:15.622Z,102887.20
2019-03-23T05:51:16.496Z,102887.16
2019-03-23T05:52:17.419Z,102887.08
2019-03-23T05:53:17.563Z,102887.84
2019-03-23T05:54:17.601Z,102888.27
2019-03-23T05:55:18.502Z,102889.18
2019-03-23T05:56:18.544Z,102890.02
2019-03-23T05:57:19.937Z,102891.20
2019-03-23T05:58:19.237Z,102891.77
2019-03-23T05:59:21.004Z,102892.94
2019-03-23T06:00:21.016Z,102894.37
2019-03-23T06:01:21.115Z,102895.61
2019-03-23T06:02:21.326Z,102896.21
2019-03-23T06:03:22.085Z,102897.55
2019-03-23T06:04:22.896Z,102898.38
2019-03-23T06:04:31.428Z,102928.42
2019-03-23T06:05:32.520Z,102911.66
2019-03-23T06:06:33.547Z,102912.00
2019-03-23T06:07:33.720Z,102912.66
2019-03-23T06:08:34.566Z,102913.28
2019-03-23T06:09:35.320Z,102913.78
2019-03-23T06:10:36.176Z,102914.71
2019-03-23T06:11:36.345Z,102915.77
2019-03-23T06:12:36.469Z,102916.30
2019-03-23T06:13:37.409Z,102917.23
2019-03-23T06:14:38.231Z,102918.91
2019-03-23T06:15:39.054Z,102919.45
2019-03-23T06:16:39.935Z,102920.22
2019-03-23T06:17:40.831Z,102920.95
2019-03-23T06:18:41.764Z,102921.41
2019-03-23T06:19:42.702Z,102922.53
2019-03-23T06:20:42.887Z,102923.39
2019-03-23T06:21:43.867Z,102924.95
2019-03-23T06:22:44.610Z,102925.81
2019-03-23T06:23:45.484Z,102926.67
2019-03-23T06:24:46.409Z,102927.57
2019-03-23T06:25:47.338Z,102928.77
2019-03-23T06:26:48.214Z,102929.79
2019-03-23T06:27:49.143Z,102930.58
2019-03-23T06:28:49.151Z,102931.47
2019-03-23T06:29:50.003Z,102932.52
2019-03-23T06:30:50.934Z,102933.71
2019-03-23T06:31:51.478Z,102934.73
2019-03-23T06:32:51.521Z,102935.37
2019-03-23T06:33:52.434Z,102935.72
2019-03-23T06:34:52.515Z,102935.59
2019-03-23T06:35:53.415Z,102936.11
2019-03-23T06:36:53.479Z,102936.88
2019-03-23T06:37:54.401Z,102937.41
2019-03-23T06:39:05.051Z,102937.78
2019-03-23T06:39:55.258Z,102938.30
2019-03-23T06:40:56.279Z,102938.83
2019-03-23T06:41:56.359Z,102939.13
2019-03-23T06:42:59.890Z,102939.31
2019-03-23T06:43:56.363Z,102939.59
2019-03-23T06:44:58.198Z,102939.80
2019-03-23T06:45:59.048Z,102940.25
2019-03-23T06:46:59.928Z,102941.30
2019-03-23T06:47:08.445Z,102948.72
2019-03-23T06:48:09.529Z,102953.39
2019-03-23T06:49:10.365Z,102953.41
2019-03-23T06:50:10.544Z,102953.16
2019-03-23T06:51:11.442Z,102953.33
2019-03-23T06:52:12.226Z,102953.11
2019-03-23T06:53:13.065Z,102953.14
2019-03-23T06:54:13.050Z,102953.57
2019-03-23T06:55:13.888Z,102954.01
2019-03-23T06:56:14.574Z,102954.53
2019-03-23T06:57:15.416Z,102954.69
2019-03-23T06:58:15.639Z,102954.38
2019-03-23T06:59:15.619Z,102954.43
2019-03-23T07:00:15.627Z,102954.18
2019-03-23T07:01:15.719Z,102954.20
2019-03-23T07:02:16.649Z,102954.73
2019-03-23T07:03:16.666Z,102954.83
2019-03-23T07:04:17.675Z,102954.86
2019-03-23T07:05:18.605Z,102955.14
2019-03-23T07:06:19.506Z,102955.56
2019-03-23T07:07:20.320Z,102956.26
2019-03-23T07:08:31.313Z,102956.42
2019-03-23T07:09:21.018Z,102956.70
2019-03-23T07:10:22.750Z,102957.73
2019-03-23T07:11:22.837Z,102957.66
2019-03-23T07:12:21.931Z,102958.50
2019-03-23T07:13:22.962Z,102958.44
2019-03-23T07:14:23.188Z,102959.37
2019-03-23T07:15:22.980Z,102959.30
2019-03-23T07:16:24.999Z,102959.05
2019-03-23T07:17:24.747Z,102959.01
2019-03-23T07:18:26.648Z,102958.78
2019-03-23T07:19:27.602Z,102958.37
2019-03-23T07:20:28.524Z,102957.81
2019-03-23T07:21:29.352Z,102957.32
2019-03-23T07:22:29.369Z,102957.20
2019-03-23T07:23:30.379Z,102957.54
2019-03-23T07:24:30.368Z,102956.95
2019-03-23T07:25:31.099Z,102957.14
2019-03-23T07:26:31.260Z,102956.83
2019-03-23T07:27:31.495Z,102956.52
2019-03-23T07:28:32.480Z,102956.45
2019-03-23T07:29:32.737Z,102956.54
2019-03-23T07:30:33.714Z,102956.56
2019-03-23T07:31:33.700Z,102956.24
2019-03-23T07:32:33.940Z,102956.49
2019-03-23T07:33:34.900Z,102956.77
2019-03-23T07:34:35.921Z,102956.72
2019-03-23T07:34:44.419Z,102969.55
2019-03-23T07:35:46.359Z,102959.97
2019-03-23T07:36:46.393Z,102960.14
2019-03-23T07:37:45.400Z,102960.06
2019-03-23T07:38:46.405Z,102960.23
2019-03-23T07:39:46.535Z,102960.63
2019-03-23T07:40:46.736Z,102961.49
2019-03-23T07:41:46.778Z,102962.09
2019-03-23T07:42:45.797Z,102962.32
2019-03-23T07:43:47.728Z,102963.02
2019-03-23T07:44:48.697Z,102963.44
2019-03-23T07:45:48.685Z,102964.27
2019-03-23T07:46:48.806Z,102965.19
2019-03-23T07:47:48.549Z,102965.72
2019-03-23T07:48:50.534Z,102966.80
2019-03-23T07:49:51.429Z,102968.06
2019-03-23T07:50:51.381Z,102968.41
2019-03-23T07:51:52.308Z,102968.98
2019-03-23T07:52:52.862Z,102970.42
2019-03-23T07:53:53.685Z,102971.26
2019-03-23T07:54:53.816Z,102972.09
2019-03-23T07:55:54.666Z,102972.34
2019-03-23T07:56:54.890Z,102973.11
2019-03-23T07:57:55.760Z,102973.37
2019-03-23T07:58:56.094Z,102974.80
2019-03-23T07:59:56.144Z,102975.63
2019-03-23T08:00:56.464Z,102976.97
2019-03-23T08:01:56.527Z,102977.66
2019-03-23T08:02:57.386Z,102977.59
2019-03-23T08:03:58.341Z,102978.41
2019-03-23T08:04:59.173Z,102978.92
2019-03-23T08:05:59.418Z,102980.03
2019-03-23T08:07:00.258Z,102980.55
2019-03-23T08:08:01.198Z,102981.48
2019-03-23T08:09:02.000Z,102982.06
2019-03-23T08:10:02.445Z,102982.93
2019-03-23T08:11:02.435Z,102984.27
2019-03-23T08:12:03.208Z,102984.70
2019-03-23T08:13:02.300Z,102986.05
2019-03-23T08:14:04.188Z,102986.30
2019-03-23T08:15:04.322Z,102987.08
2019-03-23T08:16:05.324Z,102987.39
2019-03-23T08:17:06.250Z,102988.33
2019-03-23T08:18:06.396Z,102988.84
2019-03-23T08:19:07.269Z,102990.02
2019-03-23T08:20:08.086Z,102990.61
2019-03-23T08:21:08.992Z,102991.72
